Time;durP1;ratioP1;P1;durP2;ratioP2;P2;SDS_P1;SDS_P2;PMS_P1;PMS_P2;Temp;Humidity;BMP_temperature;BMP_pressure;BME280_temperature;BME280_humidity;BME280_pressure;Samples;Min_cycle;Max_cycle;Signal;HPM_P1;HPM_P2
2023/04/16 00:01:33;;;;;;;4.63;4.13;;;18.10;73.80;;;;;;5072953;28;20280;-65
2023/04/16 00:04:21;;;;;;;4.30;3.83;;;18.20;73.30;;;;;;5074728;28;20284;-65
2023/04/16 00:07:09;;;;;;;5.00;4.53;;;18.20;73.30;;;;;;5073900;28;20225;-65
2023/04/16 00:09:57;;;;;;;5.28;4.88;;;18.20;73.30;;;;;;5074304;28;20226;-65
2023/04/16 00:12:45;;;;;;;4.60;4.20;;;18.10;73.50;;;;;;5074635;28;20208;-65
2023/04/16 00:15:35;;;;;;;4.03;3.72;;;18.10;73.60;;;;;;5073984;28;20731;-65
2023/04/16 00:18:23;;;;;;;4.38;4.03;;;18.10;73.50;;;;;;5073874;28;20724;-64
2023/04/16 00:21:11;;;;;;;5.00;4.57;;;18.00;73.40;;;;;;5073715;28;20316;-64
2023/04/16 00:23:59;;;;;;;4.82;4.43;;;18.10;73.70;;;;;;5072795;28;20681;-66
2023/04/16 00:26:47;;;;;;;4.40;4.00;;;17.90;73.50;;;;;;5073164;28;20716;-65
2023/04/16 00:29:35;;;;;;;4.28;3.80;;;17.90;73.60;;;;;;5072676;28;20200;-65
2023/04/16 00:32:25;;;;;;;4.28;3.88;;;17.90;74.00;;;;;;5073039;28;20330;-65
2023/04/16 00:35:13;;;;;;;4.22;3.85;;;17.90;74.70;;;;;;5072554;28;20574;-65
2023/04/16 00:38:01;;;;;;;4.75;4.32;;;17.70;73.40;;;;;;5072376;28;20269;-65
2023/04/16 00:40:49;;;;;;;4.22;3.88;;;17.70;74.10;;;;;;5072523;28;20201;-65
2023/04/16 00:43:37;;;;;;;4.65;4.25;;;17.70;74.10;;;;;;5073143;28;20230;-65
2023/04/16 00:46:26;;;;;;;4.45;3.53;;;17.60;74.30;;;;;;5061293;28;20724;-65
2023/04/16 00:49:15;;;;;;;5.15;4.40;;;17.80;74.30;;;;;;5053516;28;20194;-65
2023/04/16 00:52:04;;;;;;;5.47;4.10;;;17.60;74.40;;;;;;5053161;28;20275;-65
2023/04/16 00:54:52;;;;;;;4.50;4.10;;;17.60;74.30;;;;;;5053594;28;20193;-65
2023/04/16 00:57:40;;;;;;;5.93;5.05;;;17.60;73.80;;;;;;5053073;28;20768;-65
2023/04/16 01:00:28;;;;;;;4.45;3.80;;;17.60;74.50;;;;;;5053281;28;20283;-65
2023/04/16 01:03:17;;;;;;;5.55;5.05;;;17.70;74.70;;;;;;5053039;28;20194;-65
2023/04/16 01:06:07;;;;;;;5.18;4.68;;;17.90;84.40;;;;;;5052882;28;20220;-65
2023/04/16 01:08:55;;;;;;;5.78;5.18;;;17.80;76.30;;;;;;5053461;28;20672;-65
2023/04/16 01:11:43;;;;;;;5.18;4.65;;;17.80;76.30;;;;;;5052868;28;20276;-65
2023/04/16 01:14:35;;;;;;;6.30;5.68;;;17.80;76.00;;;;;;5052703;28;20233;-65
2023/04/16 01:17:23;;;;;;;6.30;5.47;;;17.90;75.90;;;;;;5053303;28;20713;-65
2023/04/16 01:20:11;;;;;;;5.93;5.43;;;18.00;75.40;;;;;;5052659;28;20575;-65
2023/04/16 01:23:00;;;;;;;5.75;5.07;;;18.10;75.50;;;;;;5052877;28;20299;-65
2023/04/16 01:25:48;;;;;;;5.20;4.78;;;18.10;74.90;;;;;;5052610;28;20713;-65
2023/04/16 01:28:36;;;;;;;6.65;5.95;;;18.10;74.50;;;;;;5052661;28;20280;-65
2023/04/16 01:31:25;;;;;;;4.90;4.32;;;18.20;74.90;;;;;;5052355;28;20808;-65
2023/04/16 01:34:13;;;;;;;5.25;4.75;;;18.20;74.30;;;;;;5052639;28;20685;-65
2023/04/16 01:37:01;;;;;;;7.28;5.40;;;18.10;74.00;;;;;;5052440;28;20333;-65
2023/04/16 01:39:50;;;;;;;4.50;4.10;;;18.20;74.10;;;;;;5052963;28;20749;-65
2023/04/16 01:42:38;;;;;;;5.13;4.65;;;18.20;73.40;;;;;;5069653;28;20275;-65
2023/04/16 01:45:27;;;;;;;5.28;3.95;;;18.20;73.20;;;;;;5072308;28;20202;-65
2023/04/16 01:48:15;;;;;;;5.07;4.68;;;18.20;72.60;;;;;;5052847;28;20300;-65
2023/04/16 01:51:04;;;;;;;4.57;4.18;;;18.20;73.40;;;;;;5053072;28;20296;-65
2023/04/16 01:53:52;;;;;;;4.68;4.28;;;18.10;73.30;;;;;;5051286;28;20767;-65
2023/04/16 01:56:41;;;;;;;5.18;4.68;;;18.10;73.70;;;;;;5053017;28;20934;-65
2023/04/16 01:59:29;;;;;;;5.25;4.55;;;18.10;73.70;;;;;;5052925;28;20246;-65
2023/04/16 02:02:17;;;;;;;4.70;4.15;;;18.10;73.50;;;;;;5052834;28;20215;-65
2023/04/16 02:05:06;;;;;;;4.55;4.15;;;18.00;73.50;;;;;;5052974;28;20201;-65
2023/04/16 02:07:54;;;;;;;4.38;3.97;;;17.90;73.60;;;;;;5052767;28;20257;-65
2023/04/16 02:10:42;;;;;;;5.10;4.70;;;17.90;73.60;;;;;;5053065;28;20347;-65
2023/04/16 02:13:31;;;;;;;5.00;4.43;;;17.80;73.80;;;;;;5052572;28;20203;-65
2023/04/16 02:16:19;;;;;;;5.32;4.82;;;17.70;73.90;;;;;;5052563;28;20266;-65
2023/04/16 02:19:07;;;;;;;5.60;4.32;;;17.70;74.00;;;;;;5051813;28;20201;-65
2023/04/16 02:21:56;;;;;;;4.68;4.28;;;17.80;74.50;;;;;;5052404;28;20331;-67
2023/04/16 02:24:44;;;;;;;5.70;5.10;;;17.80;74.30;;;;;;5052666;28;20648;-65
2023/04/16 02:27:32;;;;;;;6.57;4.28;;;17.60;73.60;;;;;;5052439;28;20272;-65
2023/04/16 02:30:21;;;;;;;5.68;4.20;;;17.60;74.20;;;;;;5052387;28;20400;-65
2023/04/16 02:33:11;;;;;;;4.60;4.20;;;17.60;74.30;;;;;;5051718;28;20700;-65
2023/04/16 02:35:59;;;;;;;5.15;4.57;;;17.40;75.70;;;;;;5052499;28;20197;-64
2023/04/16 02:38:47;;;;;;;4.75;4.35;;;17.60;74.50;;;;;;5053113;28;20230;-66
2023/04/16 02:41:35;;;;;;;5.35;4.95;;;17.60;75.20;;;;;;5052130;28;20270;-66
2023/04/16 02:44:23;;;;;;;4.93;4.43;;;17.60;74.50;;;;;;5052369;28;20254;-66
2023/04/16 02:47:12;;;;;;;5.65;4.80;;;17.60;73.90;;;;;;5052207;28;20569;-66
2023/04/16 02:50:00;;;;;;;5.07;4.65;;;17.60;74.50;;;;;;5051171;28;20339;-66
2023/04/16 02:52:50;;;;;;;5.85;5.15;;;17.60;74.50;;;;;;5050749;28;20204;-66
2023/04/16 02:55:38;;;;;;;5.55;4.93;;;17.60;74.50;;;;;;5050940;28;20208;-66
2023/04/16 02:58:26;;;;;;;5.05;4.25;;;17.60;74.40;;;;;;5051193;28;20248;-66
2023/04/16 03:01:14;;;;;;;4.68;4.25;;;17.60;74.40;;;;;;5051482;28;20255;-66
2023/04/16 03:04:04;;;;;;;5.03;4.50;;;17.50;74.40;;;;;;5051150;28;20573;-66
2023/04/16 03:06:52;;;;;;;5.65;4.93;;;17.50;74.40;;;;;;5051472;28;20274;-66
2023/04/16 03:09:41;;;;;;;6.20;4.65;;;17.50;74.50;;;;;;5051018;28;20280;-66
2023/04/16 03:12:29;;;;;;;5.05;4.60;;;17.60;74.70;;;;;;5050409;28;20209;-66
2023/04/16 03:15:17;;;;;;;5.45;4.95;;;17.50;74.70;;;;;;5050713;28;20279;-66
2023/04/16 03:18:05;;;;;;;5.30;4.80;;;17.40;74.50;;;;;;5050617;28;20296;-66
2023/04/16 03:20:54;;;;;;;5.22;4.72;;;17.50;74.70;;;;;;5050639;28;20201;-66
2023/04/16 03:23:42;;;;;;;5.63;5.10;;;17.40;74.60;;;;;;5050746;28;20535;-66
2023/04/16 03:26:30;;;;;;;6.13;4.82;;;17.40;74.10;;;;;;5050791;28;20225;-66
2023/04/16 03:29:18;;;;;;;5.38;4.88;;;17.40;74.70;;;;;;5050377;28;20319;-66
2023/04/16 03:32:06;;;;;;;5.72;4.85;;;17.50;74.90;;;;;;5050699;28;20704;-66
2023/04/16 03:34:55;;;;;;;5.35;4.35;;;17.40;74.60;;;;;;5051377;28;20439;-66
2023/04/16 03:37:44;;;;;;;6.70;5.45;;;17.40;74.70;;;;;;5051153;28;20229;-66
2023/04/16 03:40:32;;;;;;;4.93;4.32;;;17.60;75.20;;;;;;5051536;28;20599;-66
2023/04/16 03:43:20;;;;;;;5.68;5.07;;;17.50;74.70;;;;;;5053925;28;20262;-66
2023/04/16 03:46:08;;;;;;;5.18;4.70;;;17.40;82.90;;;;;;5061505;28;20352;-66
2023/04/16 03:48:56;;;;;;;5.15;4.65;;;17.50;74.60;;;;;;5051382;28;20274;-66
2023/04/16 03:51:44;;;;;;;5.47;4.97;;;17.50;74.50;;;;;;5051333;28;20258;-66
2023/04/16 03:54:34;;;;;;;5.78;5.00;;;17.40;74.40;;;;;;5051091;28;20247;-66
2023/04/16 03:57:22;;;;;;;5.78;5.15;;;17.50;74.50;;;;;;5050849;28;20219;-66
2023/04/16 04:00:11;;;;;;;4.82;4.43;;;17.50;74.50;;;;;;5051510;28;20654;-66
2023/04/16 04:02:59;;;;;;;5.20;4.60;;;17.50;74.40;;;;;;5055322;28;20699;-66
2023/04/16 04:05:47;;;;;;;8.13;5.40;;;17.50;74.40;;;;;;5055330;28;20633;-66
2023/04/16 04:08:35;;;;;;;4.47;4.03;;;17.40;74.40;;;;;;5054418;28;20337;-66
2023/04/16 04:11:25;;;;;;;6.00;5.32;;;17.40;74.40;;;;;;5054737;28;20677;-66
2023/04/16 04:14:13;;;;;;;5.07;4.68;;;17.40;74.40;;;;;;5054472;28;20671;-66
2023/04/16 04:17:01;;;;;;;5.93;4.93;;;17.40;74.00;;;;;;5054228;28;20305;-66
2023/04/16 04:19:49;;;;;;;6.40;4.95;;;17.40;74.50;;;;;;5054238;28;20202;-66
2023/04/16 04:22:48;;;;;;;5.10;4.63;;;17.40;74.40;;;;;;5054101;28;20209;-66
2023/04/16 04:25:36;;;;;;;4.55;4.20;;;17.40;75.10;;;;;;5064021;28;20581;-66
2023/04/16 04:28:25;;;;;;;5.32;4.78;;;17.40;74.40;;;;;;5067543;28;20213;-66
2023/04/16 04:31:13;;;;;;;6.38;5.22;;;17.40;74.50;;;;;;5066577;28;20622;-67
2023/04/16 04:34:01;;;;;;;5.85;5.32;;;17.40;74.40;;;;;;5060676;28;20239;-66
2023/04/16 04:36:49;;;;;;;7.30;4.97;;;17.40;74.00;;;;;;5055205;28;20248;-66
2023/04/16 04:39:38;;;;;;;5.95;5.35;;;17.40;74.50;;;;;;5057611;28;20616;-66
2023/04/16 04:42:26;;;;;;;7.82;7.03;;;17.40;74.50;;;;;;5056424;28;20296;-66
2023/04/16 04:45:15;;;;;;;5.55;4.70;;;17.40;74.80;;;;;;5059422;28;20692;-66
2023/04/16 04:48:04;;;;;;;6.43;5.78;;;17.40;74.40;;;;;;5076482;28;20220;-66
2023/04/16 04:50:52;;;;;;;5.78;5.28;;;17.40;75.30;;;;;;5075152;28;20287;-66
2023/04/16 04:53:40;;;;;;;11.07;7.35;;;17.40;75.30;;;;;;5075671;28;20208;-66
2023/04/16 04:56:28;;;;;;;7.05;5.40;;;17.50;75.20;;;;;;5075916;28;20223;-66
2023/04/16 04:59:16;;;;;;;10.80;7.78;;;17.50;75.30;;;;;;5075490;28;20200;-66
2023/04/16 05:02:06;;;;;;;7.05;6.22;;;17.70;75.10;;;;;;5074022;28;20278;-66
2023/04/16 05:04:54;;;;;;;5.95;5.00;;;17.60;74.60;;;;;;5073199;28;20260;-66
2023/04/16 05:07:42;;;;;;;5.50;4.97;;;17.70;73.90;;;;;;5073342;28;20295;-66
2023/04/16 05:10:30;;;;;;;6.95;6.32;;;17.70;74.40;;;;;;5073804;28;20204;-66
2023/04/16 05:13:18;;;;;;;5.65;5.15;;;17.80;74.20;;;;;;5072962;28;20223;-66
2023/04/16 05:16:07;;;;;;;8.90;7.22;;;18.00;82.00;;;;;;5071742;28;20279;-66
2023/04/16 05:18:57;;;;;;;5.53;4.95;;;17.80;74.70;;;;;;5072247;28;20279;-66
2023/04/16 05:21:45;;;;;;;6.63;5.75;;;17.90;73.80;;;;;;5071364;28;20241;-66
2023/04/16 05:24:33;;;;;;;5.40;4.78;;;17.90;73.80;;;;;;5071917;28;20298;-66
2023/04/16 05:27:21;;;;;;;5.85;4.63;;;17.90;73.30;;;;;;5071649;28;20342;-66
2023/04/16 05:30:09;;;;;;;5.90;4.75;;;18.00;73.60;;;;;;5070975;28;20228;-66
2023/04/16 05:32:57;;;;;;;5.38;4.88;;;17.80;73.30;;;;;;5072912;28;20250;-66
2023/04/16 05:35:47;;;;;;;5.40;4.90;;;17.80;73.60;;;;;;5072591;28;20697;-66
2023/04/16 05:38:35;;;;;;;6.40;5.50;;;17.80;73.50;;;;;;5071019;28;20204;-66
2023/04/16 05:41:23;;;;;;;5.63;5.05;;;17.80;73.60;;;;;;5072230;28;20283;-66
2023/04/16 05:44:11;;;;;;;6.93;4.75;;;17.80;73.80;;;;;;5071152;28;20697;-66
2023/04/16 05:46:59;;;;;;;5.25;4.55;;;17.70;73.70;;;;;;5054089;28;20306;-66
2023/04/16 05:49:47;;;;;;;4.63;4.18;;;17.60;73.70;;;;;;5052277;28;20716;-66
2023/04/16 05:52:36;;;;;;;5.25;4.40;;;17.60;73.90;;;;;;5051847;28;20204;-66
2023/04/16 05:55:24;;;;;;;5.53;4.95;;;17.50;73.80;;;;;;5052747;28;20707;-66
2023/04/16 05:58:12;;;;;;;6.00;4.50;;;17.50;73.40;;;;;;5052033;28;20227;-66
2023/04/16 06:01:01;;;;;;;5.85;5.25;;;17.50;74.10;;;;;;5052146;28;20690;-66
2023/04/16 06:03:49;;;;;;;6.13;5.38;;;17.50;74.20;;;;;;5051857;28;20261;-66
2023/04/16 06:06:38;;;;;;;5.78;4.63;;;17.50;74.20;;;;;;5051731;28;20300;-66
2023/04/16 06:09:27;;;;;;;6.88;5.97;;;17.40;74.30;;;;;;5051831;28;20217;-66
2023/04/16 06:12:15;;;;;;;7.07;6.45;;;17.50;75.50;;;;;;5051486;28;20284;-66
2023/04/16 06:15:04;;;;;;;7.03;5.95;;;17.50;75.50;;;;;;5052072;28;20201;-66
2023/04/16 06:17:52;;;;;;;9.10;6.18;;;17.60;75.40;;;;;;5051519;28;20846;-66
2023/04/16 06:20:40;;;;;;;7.38;6.00;;;17.70;75.30;;;;;;5051551;28;20197;-66
2023/04/16 06:23:28;;;;;;;7.05;6.35;;;17.70;75.10;;;;;;5050617;28;20284;-66
2023/04/16 06:26:17;;;;;;;6.55;5.95;;;17.80;74.70;;;;;;5051449;28;20346;-66
2023/04/16 06:29:05;;;;;;;5.07;4.60;;;17.80;74.60;;;;;;5051621;28;20299;-66
2023/04/16 06:31:54;;;;;;;6.78;5.82;;;17.80;74.00;;;;;;5051166;28;20197;-66
2023/04/16 06:34:42;;;;;;;5.30;4.80;;;18.00;74.20;;;;;;5051568;28;20636;-66
2023/04/16 06:37:30;;;;;;;4.95;4.45;;;17.90;73.50;;;;;;5051508;28;20316;-66
2023/04/16 06:40:18;;;;;;;5.78;5.18;;;17.90;73.10;;;;;;5051480;28;20630;-66
2023/04/16 06:43:08;;;;;;;6.88;5.00;;;18.00;73.20;;;;;;5051394;28;20261;-66
2023/04/16 06:45:56;;;;;;;5.28;4.78;;;17.60;73.70;;;;;;5059353;28;20322;-66
2023/04/16 06:48:44;;;;;;;7.95;4.97;;;18.00;73.30;;;;;;5070351;28;20748;-66
2023/04/16 06:51:32;;;;;;;4.53;4.22;;;18.00;73.30;;;;;;5070085;28;20236;-66
2023/04/16 06:54:20;;;;;;;5.80;5.13;;;17.90;73.20;;;;;;5070128;28;20279;-66
2023/04/16 06:57:08;;;;;;;5.88;5.28;;;17.90;73.30;;;;;;5070196;28;20311;-66
2023/04/16 06:59:57;;;;;;;5.75;5.18;;;17.90;73.50;;;;;;5070011;28;20266;-66
2023/04/16 07:02:45;;;;;;;7.05;4.82;;;17.80;73.50;;;;;;5071049;28;20204;-66
2023/04/16 07:05:34;;;;;;;6.13;5.22;;;17.80;73.40;;;;;;5070242;28;20204;-66
2023/04/16 07:08:21;;;;;;;6.32;4.80;;;17.80;73.60;;;;;;5070149;28;20283;-66
2023/04/16 07:11:10;;;;;;;5.88;4.57;;;17.70;73.60;;;;;;5070328;28;20211;-66
2023/04/16 07:13:58;;;;;;;5.35;4.80;;;17.80;73.80;;;;;;5070209;28;20250;-66
2023/04/16 07:16:47;;;;;;;8.00;5.03;;;17.80;73.70;;;;;;5070630;28;20733;-66
2023/04/16 07:19:35;;;;;;;7.07;4.82;;;17.70;73.80;;;;;;5069843;28;20196;-66
2023/04/16 07:22:24;;;;;;;4.72;4.30;;;17.70;73.80;;;;;;5069789;28;20394;-66
2023/04/16 07:25:12;;;;;;;5.85;4.90;;;17.70;73.80;;;;;;5071150;28;20200;-66
2023/04/16 07:28:00;;;;;;;5.55;4.75;;;17.70;73.90;;;;;;5070233;28;20268;-66
2023/04/16 07:30:49;;;;;;;7.10;4.90;;;17.80;74.20;;;;;;5071046;28;20310;-66
2023/04/16 07:33:38;;;;;;;6.25;4.88;;;17.60;73.90;;;;;;5070060;28;20208;-66
2023/04/16 07:36:27;;;;;;;6.57;5.32;;;17.60;73.50;;;;;;5073282;28;20670;-66
2023/04/16 07:39:15;;;;;;;6.05;5.28;;;17.60;74.00;;;;;;5074750;28;20199;-66
2023/04/16 07:42:03;;;;;;;7.85;5.80;;;17.60;74.00;;;;;;5072955;28;20197;-66
2023/04/16 07:44:51;;;;;;;5.55;5.05;;;17.60;75.00;;;;;;5074006;28;20211;-66
2023/04/16 07:47:39;;;;;;;5.47;4.97;;;17.60;74.90;;;;;;5052974;28;20213;-66
2023/04/16 07:50:29;;;;;;;6.28;5.68;;;17.60;74.90;;;;;;5053501;28;20221;-66
2023/04/16 07:53:17;;;;;;;5.70;5.18;;;17.70;74.40;;;;;;5053448;28;20646;-66
2023/04/16 07:56:05;;;;;;;6.03;5.45;;;17.90;82.60;;;;;;5054506;28;20197;-66
2023/04/16 07:58:53;;;;;;;6.90;5.20;;;17.80;75.40;;;;;;5053895;28;20212;-66
2023/04/16 08:01:42;;;;;;;5.40;4.90;;;17.80;74.70;;;;;;5053256;28;20205;-66
2023/04/16 08:04:30;;;;;;;5.25;4.75;;;17.90;74.30;;;;;;5053789;28;20236;-66
2023/04/16 08:07:19;;;;;;;4.50;4.10;;;17.80;73.70;;;;;;5053599;28;20243;-66
2023/04/16 08:10:08;;;;;;;5.22;4.47;;;17.80;73.60;;;;;;5054131;28;20217;-66
2023/04/16 08:12:57;;;;;;;5.38;4.53;;;17.80;73.80;;;;;;5053501;28;20283;-66
2023/04/16 08:15:45;;;;;;;5.45;4.70;;;17.80;73.80;;;;;;5053608;28;20276;-66
2023/04/16 08:18:33;;;;;;;5.38;4.88;;;17.90;73.90;;;;;;5053551;28;20582;-66
2023/04/16 08:21:21;;;;;;;4.75;4.35;;;17.80;73.60;;;;;;5053339;28;20272;-66
2023/04/16 08:24:11;;;;;;;5.30;4.75;;;17.90;73.60;;;;;;5052519;28;20228;-66
2023/04/16 08:26:59;;;;;;;4.65;4.25;;;17.90;73.70;;;;;;5053271;28;20249;-66
2023/04/16 08:30:05;;;;;;;4.90;4.40;;;17.80;73.60;;;;;;5053096;28;20217;-66
2023/04/16 08:32:53;;;;;;;5.25;4.32;;;17.80;73.60;;;;;;5053288;28;20198;-66
2023/04/16 08:35:42;;;;;;;7.03;4.75;;;17.90;73.90;;;;;;5053209;28;20205;-66
2023/04/16 08:38:30;;;;;;;5.13;4.65;;;17.80;73.80;;;;;;5053757;28;20229;-66
2023/04/16 08:41:23;;;;;;;5.03;4.53;;;17.80;74.00;;;;;;5052583;28;20275;-66
2023/04/16 08:44:17;;;;;;;5.53;4.80;;;17.70;74.10;;;;;;5053117;28;20205;-66
2023/04/16 08:47:07;;;;;;;4.80;4.32;;;17.70;73.70;;;;;;5069180;28;20661;-66
2023/04/16 08:49:58;;;;;;;4.53;4.07;;;17.70;74.30;;;;;;5073992;28;20692;-66
2023/04/16 08:52:53;;;;;;;5.90;4.57;;;17.60;74.50;;;;;;5073699;28;20283;-66
2023/04/16 08:55:46;;;;;;;4.93;4.50;;;17.60;74.50;;;;;;5073974;28;20685;-66
2023/04/16 08:58:37;;;;;;;5.28;4.78;;;17.60;76.10;;;;;;5072677;28;20287;-66
2023/04/16 09:01:25;;;;;;;5.93;5.38;;;17.70;75.80;;;;;;5072302;28;20289;-66
2023/04/16 09:04:15;;;;;;;5.13;4.60;;;17.70;75.80;;;;;;5073213;28;20203;-66
2023/04/16 09:07:04;;;;;;;5.45;4.72;;;17.80;75.40;;;;;;5072559;28;20216;-66
2023/04/16 09:09:53;;;;;;;5.47;4.93;;;18.00;75.30;;;;;;5071719;28;20213;-66
2023/04/16 09:12:42;;;;;;;4.88;4.40;;;18.10;75.10;;;;;;5072775;28;20204;-66
2023/04/16 09:15:33;;;;;;;4.75;4.30;;;18.10;74.70;;;;;;5073185;28;20577;-66
2023/04/16 09:18:22;;;;;;;5.03;4.53;;;18.30;74.60;;;;;;5072464;28;20591;-66
2023/04/16 09:21:10;;;;;;;5.38;4.88;;;18.20;74.10;;;;;;5071980;28;20271;-66
2023/04/16 09:23:59;;;;;;;4.65;4.25;;;18.30;74.10;;;;;;5072868;28;20279;-66
2023/04/16 09:26:51;;;;;;;5.68;4.57;;;18.30;74.00;;;;;;5072973;28;20225;-66
2023/04/16 09:29:40;;;;;;;5.50;4.90;;;18.40;73.60;;;;;;5071409;28;20276;-66
2023/04/16 09:32:30;;;;;;;4.28;3.88;;;18.40;73.60;;;;;;5071663;28;20237;-66
2023/04/16 09:35:19;;;;;;;6.53;4.63;;;18.40;72.90;;;;;;5071597;28;20201;-66
2023/04/16 09:38:07;;;;;;;5.05;4.55;;;18.30;72.80;;;;;;5071535;28;20232;-66
2023/04/16 09:41:06;;;;;;;5.88;4.45;;;18.30;72.80;;;;;;5071412;28;20221;-66
2023/04/16 09:43:56;;;;;;;4.68;4.20;;;18.20;72.80;;;;;;5072939;28;20262;-66
2023/04/16 09:46:44;;;;;;;5.38;4.38;;;18.30;73.10;;;;;;5056951;28;20795;-67
2023/04/16 09:49:40;;;;;;;6.22;5.03;;;18.20;73.10;;;;;;5052568;28;20201;-66
2023/04/16 09:52:28;;;;;;;4.70;3.88;;;18.20;73.20;;;;;;5051895;28;20292;-66
2023/04/16 09:55:22;;;;;;;4.93;4.32;;;18.10;73.10;;;;;;5052305;28;20288;-66
2023/04/16 09:58:10;;;;;;;5.25;4.72;;;18.10;73.40;;;;;;5051871;28;20229;-66
2023/04/16 10:01:01;;;;;;;4.70;4.20;;;18.00;73.50;;;;;;5052423;28;20204;-66
2023/04/16 10:03:50;;;;;;;4.25;3.80;;;18.00;73.70;;;;;;5053081;28;20193;-66
2023/04/16 10:06:39;;;;;;;5.30;4.80;;;18.10;73.70;;;;;;5052963;28;20217;-66
2023/04/16 10:09:32;;;;;;;7.20;3.80;;;18.00;73.80;;;;;;5053213;28;20197;-66
2023/04/16 10:12:20;;;;;;;4.88;4.38;;;17.90;73.40;;;;;;5052652;28;20247;-66
2023/04/16 10:15:09;;;;;;;4.35;3.95;;;18.00;73.70;;;;;;5054717;28;20284;-66
2023/04/16 10:17:59;;;;;;;5.53;4.10;;;18.00;73.70;;;;;;5054830;28;20339;-66
2023/04/16 10:20:47;;;;;;;5.47;3.92;;;18.00;73.80;;;;;;5056070;28;20203;-66
2023/04/16 10:23:38;;;;;;;6.75;4.20;;;17.90;73.70;;;;;;5053907;28;20209;-66
2023/04/16 10:26:27;;;;;;;4.32;3.88;;;17.90;73.80;;;;;;5052613;28;20279;-67
2023/04/16 10:29:16;;;;;;;4.60;4.20;;;17.90;73.90;;;;;;5052363;28;20288;-66
2023/04/16 10:32:05;;;;;;;5.35;4.55;;;17.90;73.90;;;;;;5051947;28;20304;-66
2023/04/16 10:34:54;;;;;;;5.15;4.65;;;17.90;75.00;;;;;;5052203;28;20232;-66
2023/04/16 10:37:43;;;;;;;5.22;4.68;;;18.00;75.60;;;;;;5052328;28;20271;-66
2023/04/16 10:40:34;;;;;;;4.80;4.30;;;17.90;75.50;;;;;;5052140;28;20201;-66
2023/04/16 10:43:25;;;;;;;4.47;4.07;;;17.90;75.10;;;;;;5051439;28;20233;-66
2023/04/16 10:46:21;;;;;;;5.45;4.45;;;17.90;75.00;;;;;;5061897;28;20712;-66
2023/04/16 10:49:16;;;;;;;4.57;4.15;;;17.90;75.00;;;;;;5071086;28;20209;-66
2023/04/16 10:52:10;;;;;;;4.57;4.18;;;18.00;75.30;;;;;;5070553;28;20227;-66
2023/04/16 10:55:00;;;;;;;3.85;3.55;;;17.90;74.20;;;;;;5071237;28;20279;-66
2023/04/16 10:57:52;;;;;;;4.50;4.10;;;18.00;74.40;;;;;;5070771;28;20220;-66
2023/04/16 11:00:49;;;;;;;4.80;3.72;;;18.00;74.20;;;;;;5072343;28;20719;-67
2023/04/16 11:03:41;;;;;;;4.60;4.20;;;18.00;73.80;;;;;;5071500;28;20314;-66
2023/04/16 11:06:30;;;;;;;4.75;4.25;;;18.00;74.10;;;;;;5070631;28;20216;-66
2023/04/16 11:09:54;;;;;;;4.20;3.80;;;18.00;74.00;;;;;;5072654;28;20200;-66
2023/04/16 11:12:44;;;;;;;4.20;3.90;;;18.00;74.10;;;;;;5075150;28;20232;-66
2023/04/16 11:15:33;;;;;;;4.75;4.28;;;18.00;74.00;;;;;;5074763;28;20322;-66
2023/04/16 11:18:21;;;;;;;4.50;4.20;;;18.00;74.00;;;;;;5075081;28;20283;-66
2023/04/16 11:21:11;;;;;;;4.70;3.65;;;18.00;73.90;;;;;;5074001;28;20192;-66
2023/04/16 11:23:59;;;;;;;4.65;4.10;;;18.00;74.10;;;;;;5076001;28;20232;-66
2023/04/16 11:26:51;;;;;;;4.53;3.97;;;18.00;74.10;;;;;;5075573;28;20649;-66
2023/04/16 11:29:40;;;;;;;4.63;3.95;;;18.00;74.10;;;;;;5073772;28;20197;-66
2023/04/16 11:32:31;;;;;;;4.45;3.78;;;17.90;74.00;;;;;;5073935;28;20221;-66
2023/04/16 11:35:19;;;;;;;5.10;4.13;;;17.90;74.20;;;;;;5075586;28;20200;-66
2023/04/16 11:38:07;;;;;;;5.07;4.60;;;17.80;74.20;;;;;;5074151;28;20258;-66
2023/04/16 11:40:55;;;;;;;4.38;3.90;;;17.80;74.40;;;;;;5073803;28;20201;-67
2023/04/16 11:43:44;;;;;;;7.63;4.70;;;17.80;74.60;;;;;;5074921;28;20228;-66
2023/04/16 11:46:39;;;;;;;3.97;3.53;;;17.80;74.30;;;;;;5060575;28;20655;-66
2023/04/16 11:49:29;;;;;;;5.60;3.65;;;17.80;74.40;;;;;;5054351;28;20207;-66
2023/04/16 11:52:27;;;;;;;4.82;4.35;;;17.80;75.00;;;;;;5054279;28;20229;-66
2023/04/16 11:55:16;;;;;;;4.68;4.07;;;17.80;76.10;;;;;;5054465;28;20296;-66
2023/04/16 11:58:11;;;;;;;4.40;4.00;;;17.80;75.90;;;;;;5054484;28;20225;-66
2023/04/16 12:01:00;;;;;;;6.07;4.80;;;17.80;75.70;;;;;;5054551;28;20290;-66
2023/04/16 12:03:48;;;;;;;4.75;4.35;;;17.90;75.60;;;;;;5053922;28;20212;-66
2023/04/16 12:06:38;;;;;;;4.30;4.00;;;17.90;75.50;;;;;;5054414;28;20251;-66
2023/04/16 12:09:27;;;;;;;4.97;4.18;;;16.80;74.90;;;;;;5054231;28;20233;-66
2023/04/16 12:12:29;;;;;;;4.72;4.22;;;18.00;75.80;;;;;;5054201;28;20225;-66
2023/04/16 12:15:18;;;;;;;5.53;4.30;;;18.00;75.00;;;;;;5054198;28;20205;-66
2023/04/16 12:18:08;;;;;;;4.30;3.78;;;18.00;74.30;;;;;;5053802;28;20308;-66
2023/04/16 12:20:56;;;;;;;5.45;4.35;;;18.10;74.60;;;;;;5053008;28;20233;-66
2023/04/16 12:23:45;;;;;;;6.90;4.32;;;18.10;74.70;;;;;;5053897;28;20204;-66
2023/04/16 12:26:39;;;;;;;6.00;4.78;;;18.20;74.80;;;;;;5053978;28;20304;-66
2023/04/16 12:29:27;;;;;;;4.15;3.75;;;18.20;74.70;;;;;;5053641;28;20594;-66
2023/04/16 12:32:22;;;;;;;4.03;3.65;;;18.30;74.30;;;;;;5053303;28;20694;-66
2023/04/16 12:35:10;;;;;;;4.00;3.70;;;18.10;74.00;;;;;;5054097;28;20561;-66
2023/04/16 12:37:58;;;;;;;4.13;3.70;;;18.10;74.30;;;;;;5053418;28;20252;-66
2023/04/16 12:40:48;;;;;;;5.28;3.80;;;18.20;74.60;;;;;;5053660;28;20197;-66
2023/04/16 12:43:36;;;;;;;4.70;4.00;;;18.00;74.10;;;;;;5053025;28;20316;-66
2023/04/16 12:46:24;;;;;;;3.38;3.08;;;17.90;74.30;;;;;;5065563;28;20252;-66
2023/04/16 12:49:12;;;;;;;4.07;3.67;;;18.00;74.40;;;;;;5073656;28;20204;-66
2023/04/16 12:52:00;;;;;;;4.10;3.70;;;17.80;74.30;;;;;;5072065;28;20220;-66
2023/04/16 12:54:48;;;;;;;4.35;3.95;;;17.80;74.50;;;;;;5073569;28;20286;-66
2023/04/16 12:57:38;;;;;;;4.05;3.75;;;17.80;75.40;;;;;;5073164;28;20253;-66
2023/04/16 13:00:26;;;;;;;3.97;3.60;;;17.80;74.80;;;;;;5073068;28;20494;-66
2023/04/16 13:03:14;;;;;;;4.20;3.80;;;17.70;75.50;;;;;;5072009;28;20262;-66
2023/04/16 13:06:03;;;;;;;3.80;3.47;;;17.40;82.80;;;;;;5072461;28;20200;-66
2023/04/16 13:08:51;;;;;;;5.43;3.88;;;17.70;75.10;;;;;;5072501;28;20227;-66
2023/04/16 13:11:39;;;;;;;4.32;3.92;;;17.60;75.00;;;;;;5071808;28;20258;-66
2023/04/16 13:14:28;;;;;;;5.43;4.45;;;17.70;75.90;;;;;;5072350;28;20758;-66
2023/04/16 13:17:16;;;;;;;6.25;4.75;;;17.60;76.70;;;;;;5071608;28;20213;-66
2023/04/16 13:20:05;;;;;;;4.68;3.83;;;17.70;76.40;;;;;;5071576;28;20201;-67
2023/04/16 13:22:54;;;;;;;4.93;4.43;;;17.80;76.20;;;;;;5071368;28;20224;-66
2023/04/16 13:25:42;;;;;;;3.58;3.28;;;18.00;75.80;;;;;;5071755;28;20708;-66
2023/04/16 13:28:30;;;;;;;4.65;4.15;;;18.10;75.50;;;;;;5071890;28;20284;-66
2023/04/16 13:31:20;;;;;;;4.63;4.22;;;18.20;75.50;;;;;;5072529;28;20779;-66
2023/04/16 13:34:09;;;;;;;3.78;3.45;;;18.20;75.00;;;;;;5072461;28;20208;-66
2023/04/16 13:36:57;;;;;;;4.38;3.97;;;18.30;74.80;;;;;;5071251;28;20225;-66
2023/04/16 13:39:46;;;;;;;3.53;3.22;;;18.40;75.00;;;;;;5072319;28;20225;-66
2023/04/16 13:42:35;;;;;;;5.40;4.93;;;18.40;74.70;;;;;;5072612;28;20212;-66
2023/04/16 13:45:23;;;;;;;5.38;4.65;;;18.50;74.60;;;;;;5067563;28;20276;-66
2023/04/16 13:48:12;;;;;;;3.70;3.40;;;18.40;74.20;;;;;;5052100;28;20228;-66
2023/04/16 13:51:00;;;;;;;4.00;3.60;;;18.50;73.90;;;;;;5052368;28;20583;-66
2023/04/16 13:53:48;;;;;;;3.85;3.55;;;18.50;73.90;;;;;;5052045;28;20642;-66
2023/04/16 13:56:36;;;;;;;3.90;3.60;;;18.50;73.80;;;;;;5052443;28;20270;-66
2023/04/16 13:59:25;;;;;;;4.00;3.60;;;18.50;73.50;;;;;;5052209;28;20696;-66
2023/04/16 14:02:13;;;;;;;3.95;3.55;;;18.50;73.40;;;;;;5052732;28;20307;-66
2023/04/16 14:05:03;;;;;;;3.40;3.10;;;18.50;73.40;;;;;;5052193;28;20201;-66
2023/04/16 14:07:51;;;;;;;3.60;3.30;;;18.40;73.50;;;;;;5051714;28;20707;-66
2023/04/16 14:10:39;;;;;;;4.78;4.05;;;18.20;73.50;;;;;;5051944;28;20287;-66
2023/04/16 14:13:27;;;;;;;4.88;3.90;;;18.20;73.70;;;;;;5051549;28;20229;-67
2023/04/16 14:16:15;;;;;;;4.25;3.70;;;18.20;73.90;;;;;;5052166;28;20259;-66
2023/04/16 14:19:03;;;;;;;3.75;3.45;;;18.30;74.20;;;;;;5052284;28;20569;-66
2023/04/16 14:21:53;;;;;;;3.88;3.47;;;18.10;73.90;;;;;;5051480;28;20279;-66
2023/04/16 14:24:41;;;;;;;3.65;3.35;;;18.10;73.90;;;;;;5051571;28;20209;-66
2023/04/16 14:27:30;;;;;;;3.83;3.53;;;18.10;73.50;;;;;;5051600;28;20292;-66
2023/04/16 14:30:18;;;;;;;3.95;3.28;;;18.00;74.00;;;;;;5051594;28;20197;-66
2023/04/16 14:33:06;;;;;;;3.53;3.25;;;18.00;74.00;;;;;;5051557;28;20225;-66
2023/04/16 14:35:54;;;;;;;4.32;3.60;;;18.00;82.10;;;;;;5051504;28;20228;-66
2023/04/16 14:38:44;;;;;;;3.35;3.05;;;18.00;74.40;;;;;;5051984;28;20204;-66
2023/04/16 14:41:32;;;;;;;3.70;3.40;;;17.90;74.30;;;;;;5051312;28;20201;-66